ENBR/BGO METAR and TAF weather

Enter ICAO airport designator
Station Type Date Time Source
ENBR METAR 2021/09/24 04:50 UTC NOAA

ENBR 240450Z 15013KT 9999 -RA FEW003 SCT008 BKN012 08/07 Q1001 TEMPO RA BKN008 RMK WIND 1200FT 15020KT


Station Type Date Time Source
ENBR Decoded METAR 2021/09/24 04:50 UTC NOAA

Bergen / Flesland, Norway (ENBR) 60-17N 005-14E 50M
Sep 24, 2021 - 12:50 AM EDT / 2021.09.24 0450 UTC
Wind: from the SSE (150 degrees) at 15 MPH (13 KT):0
Visibility: greater than 7 mile(s):0
Sky conditions: mostly cloudy
Weather: light rain
Temperature: 46 F (8 C)
Dew Point: 44 F (7 C)
Relative Humidity: 93%
Pressure (altimeter): 29.56 in. Hg (1001 hPa)
ob: ENBR 240450Z 15013KT 9999 -RA FEW003 SCT008 BKN012 08/07 Q1001 TEMPO RA BKN008 RMK WIND 1200FT 15020KT
cycle: 5

Station Type Date Time Source
ENBR TAF 2021/09/23 18:57 UTC NOAA

TAF ENBR 231700Z 2318/2418 34015KT 9999 FEW015 BKN030
BECMG 2318/2320 32005KT
BECMG 2403/2406 17018KT 4000 RADZ BR SCT004 BKN008
BECMG 2409/2412 25015KT
BECMG 2412/2414 9999 -RA SCT008 BKN015
TEMPO 2414/2418 BKN008

Example: see airport list